PWSweather.com
Personal Weather Stations
Station Observations
ESTFIQ
Santa Fe, Santa FeAR 3000

Santa FeSanta FeAR 3000

Lat: -31.637, Lon: -60.708

Elevation: 69

Station Type: WH-1081

http://galileo4.unl.edu.ar/estacion

Latest ConditionsUpdated 10:10:01 AM GMT-03:57 Monday, May 29, 2017
Currently Today's Max Today's Min Today's Average
Temperature 57.7°F14.3°C 57.9°F14.4°C 56.5°F13.6°C 57.0°F13.9°C
Dew Point 49.5°F9.7°C 53.0°F11.7°C 49.5°F9.7°C 51.7°F10.9°C
Winds 7.6 mph SSE12.2 kmh SSE 9.8 mph S15.8 kmh S - 3.9 mph 6.3 kmh
Wind Gusts 15.2 mph24.5 kmh 15.2 mph24.5 kmh - -
Humidity 74% 87% 74% 83%
Pressure 30.10 in1019.3 mb 30.11 in1019.6 mb 30.03 in1016.9 mb -
Hour Temp Dew Point Humidity Winds Wind Gusts Pressure Precip Precip Rate Daily Precip Total
10:10 AM 57.7°F14.3°C 49.5°F9.7°C 74% 7.6 mph SSE12.2 kmh SSE 15.2 mph24.5 kmh 30.10 in1019.3 mb 0.00 in0.0 mm 0.00 in0.0 mm 0.00 in0.0 mm
10:05 AM 57.9°F14.4°C 50.1°F10.1°C 75% 6.9 mph SE11.1 kmh SE 12.1 mph19.5 kmh 30.11 in1019.6 mb 0.00 in0.0 mm 0.00 in0.0 mm 0.00 in0.0 mm
10:00 AM 57.9°F14.4°C 50.1°F10.1°C 75% 5.4 mph SE8.7 kmh SE 13.6 mph21.9 kmh 30.11 in1019.6 mb 0.00 in0.0 mm 0.00 in0.0 mm 0.00 in0.0 mm
09:55 AM 57.9°F14.4°C 50.4°F10.2°C 76% 4.5 mph ESE7.2 kmh ESE 13.6 mph21.9 kmh 30.11 in1019.6 mb 0.00 in0.0 mm 0.00 in0.0 mm 0.00 in0.0 mm
09:50 AM 57.9°F14.4°C 50.8°F10.4°C 77% 4.5 mph SE7.2 kmh SE 10.7 mph17.2 kmh 30.10 in1019.3 mb 0.00 in0.0 mm 0.00 in0.0 mm 0.00 in0.0 mm
09:45 AM 57.9°F14.4°C 50.8°F10.4°C 77% 3.1 mph SSE5.0 kmh SSE 9.2 mph14.8 kmh 30.10 in1019.3 mb 0.00 in0.0 mm 0.00 in0.0 mm 0.00 in0.0 mm
09:40 AM 57.7°F14.3°C 51.3°F10.7°C 79% 6.9 mph SSE11.1 kmh SSE 9.8 mph15.8 kmh 30.10 in1019.3 mb 0.00 in0.0 mm 0.00 in0.0 mm 0.00 in0.0 mm
09:35 AM 57.4°F14.1°C 50.9°F10.5°C 79% 3.1 mph SSE5.0 kmh SSE 9.8 mph15.8 kmh 30.10 in1019.3 mb 0.00 in0.0 mm 0.00 in0.0 mm 0.00 in0.0 mm
09:30 AM 57.4°F14.1°C 50.9°F10.5°C 79% 3.8 mph SE6.1 kmh SE 10.7 mph17.2 kmh 30.10 in1019.3 mb 0.00 in0.0 mm 0.00 in0.0 mm 0.00 in0.0 mm
09:25 AM 57.4°F14.1°C 50.9°F10.5°C 79% 6.9 mph SE11.1 kmh SE 10.7 mph17.2 kmh 30.11 in1019.6 mb 0.00 in0.0 mm 0.00 in0.0 mm 0.00 in0.0 mm
09:20 AM 57.4°F14.1°C 50.6°F10.3°C 78% 5.4 mph S8.7 kmh S 14.5 mph23.3 kmh 30.10 in1019.3 mb 0.00 in0.0 mm 0.00 in0.0 mm 0.00 in0.0 mm
09:15 AM 57.0°F13.9°C 50.6°F10.3°C 79% 3.1 mph S5.0 kmh S 14.5 mph23.3 kmh 30.10 in1019.3 mb 0.00 in0.0 mm 0.00 in0.0 mm 0.00 in0.0 mm
09:10 AM 57.0°F13.9°C 51.3°F10.7°C 81% 6.0 mph SE9.7 kmh SE 14.5 mph23.3 kmh 30.09 in1019.0 mb 0.00 in0.0 mm 0.00 in0.0 mm 0.00 in0.0 mm
09:05 AM 57.2°F14.0°C 51.8°F11.0°C 82% 7.6 mph SSE12.2 kmh SSE 9.8 mph15.8 kmh 30.09 in1019.0 mb 0.00 in0.0 mm 0.00 in0.0 mm 0.00 in0.0 mm
09:00 AM 57.0°F13.9°C 51.9°F11.1°C 83% 3.1 mph S5.0 kmh S 7.6 mph12.2 kmh 30.08 in1018.6 mb 0.00 in0.0 mm 0.00 in0.0 mm 0.00 in0.0 mm
08:55 AM 56.8°F13.8°C 52.1°F11.2°C 84% 4.5 mph SE7.2 kmh SE 9.8 mph15.8 kmh 30.08 in1018.6 mb 0.00 in0.0 mm 0.00 in0.0 mm 0.00 in0.0 mm
08:50 AM 56.8°F13.8°C 52.1°F11.2°C 84% 5.4 mph SE8.7 kmh SE 9.8 mph15.8 kmh 30.08 in1018.6 mb 0.00 in0.0 mm 0.00 in0.0 mm 0.00 in0.0 mm
08:45 AM 56.7°F13.7°C 51.9°F11.1°C 84% 3.8 mph SE6.1 kmh SE 8.3 mph13.4 kmh 30.08 in1018.6 mb 0.00 in0.0 mm 0.00 in0.0 mm 0.00 in0.0 mm
08:40 AM 56.7°F13.7°C 51.9°F11.1°C 84% 3.8 mph SE6.1 kmh SE 11.4 mph18.3 kmh 30.08 in1018.6 mb 0.00 in0.0 mm 0.00 in0.0 mm 0.00 in0.0 mm
08:35 AM 56.5°F13.6°C 51.7°F10.9°C 84% 4.5 mph SE7.2 kmh SE 11.4 mph18.3 kmh 30.08 in1018.6 mb 0.00 in0.0 mm 0.00 in0.0 mm 0.00 in0.0 mm
08:30 AM 56.7°F13.7°C 51.9°F11.1°C 84% 4.5 mph SSW7.2 kmh SSW 9.8 mph15.8 kmh 30.07 in1018.3 mb 0.00 in0.0 mm 0.00 in0.0 mm 0.00 in0.0 mm
08:25 AM 56.7°F13.7°C 51.9°F11.1°C 84% 3.1 mph SSE5.0 kmh SSE 10.7 mph17.2 kmh 30.07 in1018.3 mb 0.00 in0.0 mm 0.00 in0.0 mm 0.00 in0.0 mm
08:20 AM 56.7°F13.7°C 51.9°F11.1°C 84% 6.0 mph SE9.7 kmh SE 10.7 mph17.2 kmh 30.07 in1018.3 mb 0.00 in0.0 mm 0.00 in0.0 mm 0.00 in0.0 mm
08:15 AM 56.7°F13.7°C 51.9°F11.1°C 84% 4.5 mph S7.2 kmh S 9.8 mph15.8 kmh 30.06 in1017.9 mb 0.00 in0.0 mm 0.00 in0.0 mm 0.00 in0.0 mm
08:10 AM 56.7°F13.7°C 52.2°F11.2°C 85% 3.1 mph S5.0 kmh S 10.7 mph17.2 kmh 30.06 in1017.9 mb 0.00 in0.0 mm 0.00 in0.0 mm 0.00 in0.0 mm
08:05 AM 56.7°F13.7°C 51.9°F11.1°C 84% 2.2 mph S3.5 kmh S 10.7 mph17.2 kmh 30.06 in1017.9 mb 0.00 in0.0 mm 0.00 in0.0 mm 0.00 in0.0 mm
08:00 AM 56.7°F13.7°C 51.9°F11.1°C 84% 5.4 mph S8.7 kmh S 9.8 mph15.8 kmh 30.06 in1017.9 mb 0.00 in0.0 mm 0.00 in0.0 mm 0.00 in0.0 mm
07:55 AM 56.7°F13.7°C 51.9°F11.1°C 84% 5.4 mph SSW8.7 kmh SSW 9.8 mph15.8 kmh 30.05 in1017.6 mb 0.00 in0.0 mm 0.00 in0.0 mm 0.00 in0.0 mm
07:50 AM 56.8°F13.8°C 52.1°F11.2°C 84% 5.4 mph S8.7 kmh S 9.2 mph14.8 kmh 30.05 in1017.6 mb 0.00 in0.0 mm 0.00 in0.0 mm 0.00 in0.0 mm
07:45 AM 56.8°F13.8°C 51.7°F10.9°C 83% 3.8 mph S6.1 kmh S 7.6 mph12.2 kmh 30.06 in1017.9 mb 0.00 in0.0 mm 0.00 in0.0 mm 0.00 in0.0 mm
07:40 AM 56.8°F13.8°C 51.7°F10.9°C 83% 5.4 mph S8.7 kmh S 10.7 mph17.2 kmh 30.06 in1017.9 mb 0.00 in0.0 mm 0.00 in0.0 mm 0.00 in0.0 mm
07:35 AM 56.8°F13.8°C 51.7°F10.9°C 83% 4.5 mph SSE7.2 kmh SSE 10.7 mph17.2 kmh 30.06 in1017.9 mb 0.00 in0.0 mm 0.00 in0.0 mm 0.00 in0.0 mm
07:30 AM 56.8°F13.8°C 51.7°F10.9°C 83% 7.6 mph SSE12.2 kmh SSE 10.7 mph17.2 kmh 30.07 in1018.3 mb 0.00 in0.0 mm 0.00 in0.0 mm 0.00 in0.0 mm
07:25 AM 57.0°F13.9°C 51.9°F11.1°C 83% 3.8 mph SSE6.1 kmh SSE 8.3 mph13.4 kmh 30.06 in1017.9 mb 0.00 in0.0 mm 0.00 in0.0 mm 0.00 in0.0 mm
07:20 AM 57.0°F13.9°C 51.9°F11.1°C 83% 3.1 mph S5.0 kmh S 8.3 mph13.4 kmh 30.07 in1018.3 mb 0.00 in0.0 mm 0.00 in0.0 mm 0.00 in0.0 mm
07:15 AM 57.0°F13.9°C 51.9°F11.1°C 83% 3.8 mph SSW6.1 kmh SSW 9.8 mph15.8 kmh 30.07 in1018.3 mb 0.00 in0.0 mm 0.00 in0.0 mm 0.00 in0.0 mm
07:10 AM 57.0°F13.9°C 51.6°F10.9°C 82% 3.1 mph S5.0 kmh S 11.4 mph18.3 kmh 30.06 in1017.9 mb 0.00 in0.0 mm 0.00 in0.0 mm 0.00 in0.0 mm
07:05 AM 57.0°F13.9°C 51.3°F10.7°C 81% 4.5 mph S7.2 kmh S 13.0 mph20.9 kmh 30.06 in1017.9 mb 0.00 in0.0 mm 0.00 in0.0 mm 0.00 in0.0 mm
07:00 AM 57.0°F13.9°C 50.9°F10.5°C 80% 3.8 mph SSW6.1 kmh SSW 13.0 mph20.9 kmh 30.05 in1017.6 mb 0.00 in0.0 mm 0.00 in0.0 mm 0.00 in0.0 mm
06:55 AM 57.0°F13.9°C 51.6°F10.9°C 82% 9.8 mph S15.8 kmh S 13.0 mph20.9 kmh 30.04 in1017.3 mb 0.00 in0.0 mm 0.00 in0.0 mm 0.00 in0.0 mm
06:50 AM 57.0°F13.9°C 51.6°F10.9°C 82% 3.8 mph S6.1 kmh S 9.8 mph15.8 kmh 30.04 in1017.3 mb 0.00 in0.0 mm 0.00 in0.0 mm 0.00 in0.0 mm
06:45 AM 57.0°F13.9°C 51.6°F10.9°C 82% 3.8 mph S6.1 kmh S 9.8 mph15.8 kmh 30.04 in1017.3 mb 0.00 in0.0 mm 0.00 in0.0 mm 0.00 in0.0 mm
06:40 AM 57.0°F13.9°C 51.3°F10.7°C 81% 3.1 mph S5.0 kmh S 9.2 mph14.8 kmh 30.04 in1017.3 mb 0.00 in0.0 mm 0.00 in0.0 mm 0.00 in0.0 mm
06:35 AM 57.0°F13.9°C 51.3°F10.7°C 81% 6.0 mph S9.7 kmh S 11.4 mph18.3 kmh 30.04 in1017.3 mb 0.00 in0.0 mm 0.00 in0.0 mm 0.00 in0.0 mm
06:30 AM 56.8°F13.8°C 51.7°F10.9°C 83% 5.4 mph S8.7 kmh S 11.4 mph18.3 kmh 30.05 in1017.6 mb 0.00 in0.0 mm 0.00 in0.0 mm 0.00 in0.0 mm
06:25 AM 56.8°F13.8°C 51.7°F10.9°C 83% 3.8 mph SSW6.1 kmh SSW 10.7 mph17.2 kmh 30.05 in1017.6 mb 0.00 in0.0 mm 0.00 in0.0 mm 0.00 in0.0 mm
06:20 AM 56.8°F13.8°C 51.7°F10.9°C 83% 3.1 mph SW5.0 kmh SW 10.7 mph17.2 kmh 30.04 in1017.3 mb 0.00 in0.0 mm 0.00 in0.0 mm 0.00 in0.0 mm
06:15 AM 56.8°F13.8°C 51.7°F10.9°C 83% 6.0 mph S9.7 kmh S 10.7 mph17.2 kmh 30.04 in1017.3 mb 0.00 in0.0 mm 0.00 in0.0 mm 0.00 in0.0 mm
06:10 AM 57.0°F13.9°C 51.9°F11.1°C 83% 8.3 mph SSE13.4 kmh SSE 10.7 mph17.2 kmh 30.04 in1017.3 mb 0.00 in0.0 mm 0.00 in0.0 mm 0.00 in0.0 mm
06:05 AM 57.0°F13.9°C 51.9°F11.1°C 83% 5.4 mph SE8.7 kmh SE 8.3 mph13.4 kmh 30.04 in1017.3 mb 0.00 in0.0 mm 0.00 in0.0 mm 0.00 in0.0 mm
06:00 AM 57.0°F13.9°C 51.9°F11.1°C 83% 3.8 mph S6.1 kmh S 8.3 mph13.4 kmh 30.04 in1017.3 mb 0.00 in0.0 mm 0.00 in0.0 mm 0.00 in0.0 mm
05:55 AM 57.0°F13.9°C 51.9°F11.1°C 83% 3.8 mph S6.1 kmh S 9.8 mph15.8 kmh 30.04 in1017.3 mb 0.00 in0.0 mm 0.00 in0.0 mm 0.00 in0.0 mm
05:50 AM 57.2°F14.0°C 51.8°F11.0°C 82% 5.4 mph S8.7 kmh S 9.8 mph15.8 kmh 30.04 in1017.3 mb 0.00 in0.0 mm 0.00 in0.0 mm 0.00 in0.0 mm
05:45 AM 57.2°F14.0°C 51.8°F11.0°C 82% 3.1 mph SSW5.0 kmh SSW 6.9 mph11.1 kmh 30.04 in1017.3 mb 0.00 in0.0 mm 0.00 in0.0 mm 0.00 in0.0 mm
05:40 AM 57.0°F13.9°C 51.9°F11.1°C 83% 5.4 mph SSW8.7 kmh SSW 8.3 mph13.4 kmh 30.04 in1017.3 mb 0.00 in0.0 mm 0.00 in0.0 mm 0.00 in0.0 mm
05:35 AM 57.0°F13.9°C 51.9°F11.1°C 83% 3.1 mph S5.0 kmh S 8.3 mph13.4 kmh 30.04 in1017.3 mb 0.00 in0.0 mm 0.00 in0.0 mm 0.00 in0.0 mm
05:30 AM 57.0°F13.9°C 51.9°F11.1°C 83% 2.2 mph SSE3.5 kmh SSE 8.3 mph13.4 kmh 30.04 in1017.3 mb 0.00 in0.0 mm 0.00 in0.0 mm 0.00 in0.0 mm
05:25 AM 57.0°F13.9°C 52.2°F11.2°C 84% 3.8 mph S6.1 kmh S 8.3 mph13.4 kmh 30.04 in1017.3 mb 0.00 in0.0 mm 0.00 in0.0 mm 0.00 in0.0 mm
05:20 AM 57.0°F13.9°C 52.2°F11.2°C 84% 3.8 mph SSE6.1 kmh SSE 6.0 mph9.7 kmh 30.04 in1017.3 mb 0.00 in0.0 mm 0.00 in0.0 mm 0.00 in0.0 mm
05:15 AM 56.8°F13.8°C 52.1°F11.2°C 84% 3.1 mph SSE5.0 kmh SSE 9.2 mph14.8 kmh 30.04 in1017.3 mb 0.00 in0.0 mm 0.00 in0.0 mm 0.00 in0.0 mm
05:10 AM 56.8°F13.8°C 52.1°F11.2°C 84% 2.2 mph SSE3.5 kmh SSE 9.2 mph14.8 kmh 30.04 in1017.3 mb 0.00 in0.0 mm 0.00 in0.0 mm 0.00 in0.0 mm
05:05 AM 56.8°F13.8°C 52.1°F11.2°C 84% 3.1 mph SSW5.0 kmh SSW 8.3 mph13.4 kmh 30.04 in1017.3 mb 0.00 in0.0 mm 0.00 in0.0 mm 0.00 in0.0 mm
05:00 AM 56.8°F13.8°C 51.7°F10.9°C 83% 3.1 mph SSW5.0 kmh SSW 8.3 mph13.4 kmh 30.03 in1016.9 mb 0.00 in0.0 mm 0.00 in0.0 mm 0.00 in0.0 mm
04:55 AM 56.7°F13.7°C 51.6°F10.9°C 83% 4.5 mph S7.2 kmh S 8.3 mph13.4 kmh 30.04 in1017.3 mb 0.00 in0.0 mm 0.00 in0.0 mm 0.00 in0.0 mm
04:50 AM 56.7°F13.7°C 51.9°F11.1°C 84% 3.1 mph S5.0 kmh S 8.3 mph13.4 kmh 30.04 in1017.3 mb 0.00 in0.0 mm 0.00 in0.0 mm 0.00 in0.0 mm
04:45 AM 56.7°F13.7°C 51.6°F10.9°C 83% 3.8 mph SSW6.1 kmh SSW 9.8 mph15.8 kmh 30.04 in1017.3 mb 0.00 in0.0 mm 0.00 in0.0 mm 0.00 in0.0 mm
04:40 AM 56.7°F13.7°C 51.9°F11.1°C 84% 5.4 mph S8.7 kmh S 9.8 mph15.8 kmh 30.04 in1017.3 mb 0.00 in0.0 mm 0.00 in0.0 mm 0.00 in0.0 mm
04:35 AM 56.7°F13.7°C 51.6°F10.9°C 83% 5.4 mph S8.7 kmh S 8.3 mph13.4 kmh 30.04 in1017.3 mb 0.00 in0.0 mm 0.00 in0.0 mm 0.00 in0.0 mm
04:30 AM 56.8°F13.8°C 51.7°F10.9°C 83% 3.8 mph S6.1 kmh S 9.2 mph14.8 kmh 30.04 in1017.3 mb 0.00 in0.0 mm 0.00 in0.0 mm 0.00 in0.0 mm
04:25 AM 57.0°F13.9°C 51.6°F10.9°C 82% 4.5 mph S7.2 kmh S 10.7 mph17.2 kmh 30.04 in1017.3 mb 0.00 in0.0 mm 0.00 in0.0 mm 0.00 in0.0 mm
04:20 AM 57.0°F13.9°C 51.6°F10.9°C 82% 3.8 mph SSE6.1 kmh SSE 10.7 mph17.2 kmh 30.04 in1017.3 mb 0.00 in0.0 mm 0.00 in0.0 mm 0.00 in0.0 mm
04:15 AM 57.0°F13.9°C 51.6°F10.9°C 82% 4.5 mph SSE7.2 kmh SSE 9.8 mph15.8 kmh 30.04 in1017.3 mb 0.00 in0.0 mm 0.00 in0.0 mm 0.00 in0.0 mm
04:10 AM 57.2°F14.0°C 51.4°F10.8°C 81% 3.8 mph SSE6.1 kmh SSE 9.2 mph14.8 kmh 30.05 in1017.6 mb 0.00 in0.0 mm 0.00 in0.0 mm 0.00 in0.0 mm
04:05 AM 57.2°F14.0°C 51.1°F10.6°C 80% 3.8 mph S6.1 kmh S 11.4 mph18.3 kmh 30.06 in1017.9 mb 0.00 in0.0 mm 0.00 in0.0 mm 0.00 in0.0 mm
04:00 AM 57.2°F14.0°C 51.1°F10.6°C 80% 4.5 mph S7.2 kmh S 11.4 mph18.3 kmh 30.06 in1017.9 mb 0.00 in0.0 mm 0.00 in0.0 mm 0.00 in0.0 mm
03:55 AM 57.2°F14.0°C 51.1°F10.6°C 80% 6.0 mph SW9.7 kmh SW 9.2 mph14.8 kmh 30.07 in1018.3 mb 0.00 in0.0 mm 0.00 in0.0 mm 0.00 in0.0 mm
03:50 AM 57.2°F14.0°C 51.4°F10.8°C 81% 3.1 mph SW5.0 kmh SW 7.6 mph12.2 kmh 30.06 in1017.9 mb 0.00 in0.0 mm 0.00 in0.0 mm 0.00 in0.0 mm
03:45 AM 57.2°F14.0°C 51.4°F10.8°C 81% 3.8 mph S6.1 kmh S 6.0 mph9.7 kmh 30.07 in1018.3 mb 0.00 in0.0 mm 0.00 in0.0 mm 0.00 in0.0 mm
03:40 AM 57.2°F14.0°C 51.8°F11.0°C 82% 2.2 mph S3.5 kmh S 4.5 mph7.2 kmh 30.07 in1018.3 mb 0.00 in0.0 mm 0.00 in0.0 mm 0.00 in0.0 mm
03:35 AM 57.2°F14.0°C 51.8°F11.0°C 82% 1.6 mph S2.6 kmh S 3.8 mph6.1 kmh 30.07 in1018.3 mb 0.00 in0.0 mm 0.00 in0.0 mm 0.00 in0.0 mm
03:30 AM 57.2°F14.0°C 51.8°F11.0°C 82% 0.7 mph SSE1.1 kmh SSE 3.8 mph6.1 kmh 30.06 in1017.9 mb 0.00 in0.0 mm 0.00 in0.0 mm 0.00 in0.0 mm
03:25 AM 57.2°F14.0°C 51.8°F11.0°C 82% 2.2 mph SSE3.5 kmh SSE 5.4 mph8.7 kmh 30.06 in1017.9 mb 0.00 in0.0 mm 0.00 in0.0 mm 0.00 in0.0 mm
03:20 AM 57.0°F13.9°C 51.9°F11.1°C 83% 1.6 mph S2.6 kmh S 5.4 mph8.7 kmh 30.06 in1017.9 mb 0.00 in0.0 mm 0.00 in0.0 mm 0.00 in0.0 mm
03:15 AM 57.0°F13.9°C 51.9°F11.1°C 83% 4.5 mph SW7.2 kmh SW 6.0 mph9.7 kmh 30.06 in1017.9 mb 0.00 in0.0 mm 0.00 in0.0 mm 0.00 in0.0 mm
03:10 AM 57.0°F13.9°C 51.9°F11.1°C 83% 2.2 mph WSW3.5 kmh WSW 6.9 mph11.1 kmh 30.06 in1017.9 mb 0.00 in0.0 mm 0.00 in0.0 mm 0.00 in0.0 mm
03:05 AM 57.0°F13.9°C 51.9°F11.1°C 83% 3.1 mph S5.0 kmh S 6.9 mph11.1 kmh 30.05 in1017.6 mb 0.00 in0.0 mm 0.00 in0.0 mm 0.00 in0.0 mm
03:00 AM 57.0°F13.9°C 51.9°F11.1°C 83% 2.2 mph SSE3.5 kmh SSE 5.4 mph8.7 kmh 30.05 in1017.6 mb 0.00 in0.0 mm 0.00 in0.0 mm 0.00 in0.0 mm
02:55 AM 57.0°F13.9°C 52.2°F11.2°C 84% 1.6 mph S2.6 kmh S 7.6 mph12.2 kmh 30.06 in1017.9 mb 0.00 in0.0 mm 0.00 in0.0 mm 0.00 in0.0 mm
02:50 AM 56.8°F13.8°C 52.1°F11.2°C 84% 2.2 mph SSW3.5 kmh SSW 7.6 mph12.2 kmh 30.06 in1017.9 mb 0.00 in0.0 mm 0.00 in0.0 mm 0.00 in0.0 mm
02:45 AM 56.8°F13.8°C 52.4°F11.3°C 85% 3.8 mph SSW6.1 kmh SSW 6.0 mph9.7 kmh 30.05 in1017.6 mb 0.00 in0.0 mm 0.00 in0.0 mm 0.00 in0.0 mm
02:40 AM 56.7°F13.7°C 52.2°F11.2°C 85% 1.6 mph SSW2.6 kmh SSW 6.0 mph9.7 kmh 30.06 in1017.9 mb 0.00 in0.0 mm 0.00 in0.0 mm 0.00 in0.0 mm
02:35 AM 56.7°F13.7°C 52.2°F11.2°C 85% 3.1 mph S5.0 kmh S 6.0 mph9.7 kmh 30.06 in1017.9 mb 0.00 in0.0 mm 0.00 in0.0 mm 0.00 in0.0 mm
02:30 AM 56.7°F13.7°C 51.9°F11.1°C 84% 1.6 mph S2.6 kmh S 6.0 mph9.7 kmh 30.06 in1017.9 mb 0.00 in0.0 mm 0.00 in0.0 mm 0.00 in0.0 mm
02:25 AM 56.8°F13.8°C 52.1°F11.2°C 84% 0.7 mph S1.1 kmh S 6.9 mph11.1 kmh 30.06 in1017.9 mb 0.00 in0.0 mm 0.00 in0.0 mm 0.00 in0.0 mm
02:20 AM 56.8°F13.8°C 51.7°F10.9°C 83% 2.2 mph S3.5 kmh S 6.9 mph11.1 kmh 30.06 in1017.9 mb 0.00 in0.0 mm 0.00 in0.0 mm 0.00 in0.0 mm
02:15 AM 57.0°F13.9°C 51.9°F11.1°C 83% 1.6 mph SSW2.6 kmh SSW 7.6 mph12.2 kmh 30.06 in1017.9 mb 0.00 in0.0 mm 0.00 in0.0 mm 0.00 in0.0 mm
02:10 AM 57.0°F13.9°C 51.9°F11.1°C 83% 1.6 mph S2.6 kmh S 7.6 mph12.2 kmh 30.07 in1018.3 mb 0.00 in0.0 mm 0.00 in0.0 mm 0.00 in0.0 mm
02:05 AM 57.0°F13.9°C 51.9°F11.1°C 83% 1.6 mph S2.6 kmh S 3.8 mph6.1 kmh 30.06 in1017.9 mb 0.00 in0.0 mm 0.00 in0.0 mm 0.00 in0.0 mm
02:00 AM 56.8°F13.8°C 51.7°F10.9°C 83% 1.6 mph SW2.6 kmh SW 6.0 mph9.7 kmh 30.06 in1017.9 mb 0.00 in0.0 mm 0.00 in0.0 mm 0.00 in0.0 mm
01:55 AM 56.8°F13.8°C 51.7°F10.9°C 83% 2.2 mph S3.5 kmh S 6.0 mph9.7 kmh 30.05 in1017.6 mb 0.00 in0.0 mm 0.00 in0.0 mm 0.00 in0.0 mm
01:50 AM 56.8°F13.8°C 51.7°F10.9°C 83% 4.5 mph SSE7.2 kmh SSE 6.0 mph9.7 kmh 30.05 in1017.6 mb 0.00 in0.0 mm 0.00 in0.0 mm 0.00 in0.0 mm
01:45 AM 56.8°F13.8°C 51.7°F10.9°C 83% 1.6 mph SSE2.6 kmh SSE 7.6 mph12.2 kmh 30.05 in1017.6 mb 0.00 in0.0 mm 0.00 in0.0 mm 0.00 in0.0 mm
01:40 AM 56.8°F13.8°C 51.7°F10.9°C 83% 2.2 mph S3.5 kmh S 7.6 mph12.2 kmh 30.05 in1017.6 mb 0.00 in0.0 mm 0.00 in0.0 mm 0.00 in0.0 mm
01:35 AM 56.8°F13.8°C 52.1°F11.2°C 84% 2.2 mph S3.5 kmh S 5.4 mph8.7 kmh 30.05 in1017.6 mb 0.00 in0.0 mm 0.00 in0.0 mm 0.00 in0.0 mm
01:30 AM 56.8°F13.8°C 51.7°F10.9°C 83% 3.1 mph S5.0 kmh S 7.6 mph12.2 kmh 30.05 in1017.6 mb 0.00 in0.0 mm 0.00 in0.0 mm 0.00 in0.0 mm
01:25 AM 56.8°F13.8°C 51.7°F10.9°C 83% 3.8 mph S6.1 kmh S 7.6 mph12.2 kmh 30.05 in1017.6 mb 0.00 in0.0 mm 0.00 in0.0 mm 0.00 in0.0 mm
01:20 AM 56.7°F13.7°C 51.9°F11.1°C 84% 4.5 mph SE7.2 kmh SE 7.6 mph12.2 kmh 30.06 in1017.9 mb 0.00 in0.0 mm 0.00 in0.0 mm 0.00 in0.0 mm
01:15 AM 56.7°F13.7°C 51.9°F11.1°C 84% 3.1 mph SSE5.0 kmh SSE 8.3 mph13.4 kmh 30.06 in1017.9 mb 0.00 in0.0 mm 0.00 in0.0 mm 0.00 in0.0 mm
01:10 AM 56.7°F13.7°C 51.9°F11.1°C 84% 3.1 mph S5.0 kmh S 8.3 mph13.4 kmh 30.06 in1017.9 mb 0.00 in0.0 mm 0.00 in0.0 mm 0.00 in0.0 mm
01:05 AM 56.7°F13.7°C 52.2°F11.2°C 85% 1.6 mph S2.6 kmh S 6.9 mph11.1 kmh 30.06 in1017.9 mb 0.00 in0.0 mm 0.00 in0.0 mm 0.00 in0.0 mm
01:00 AM 56.7°F13.7°C 52.2°F11.2°C 85% 3.1 mph S5.0 kmh S 6.9 mph11.1 kmh 30.05 in1017.6 mb 0.00 in0.0 mm 0.00 in0.0 mm 0.00 in0.0 mm
12:55 AM 56.7°F13.7°C 52.2°F11.2°C 85% 4.5 mph S7.2 kmh S 8.3 mph13.4 kmh 30.05 in1017.6 mb 0.00 in0.0 mm 0.00 in0.0 mm 0.00 in0.0 mm
12:50 AM 56.7°F13.7°C 52.2°F11.2°C 85% 2.2 mph S3.5 kmh S 9.2 mph14.8 kmh 30.06 in1017.9 mb 0.00 in0.0 mm 0.00 in0.0 mm 0.00 in0.0 mm
12:45 AM 56.7°F13.7°C 52.2°F11.2°C 85% 3.1 mph SE5.0 kmh SE 9.2 mph14.8 kmh 30.05 in1017.6 mb 0.00 in0.0 mm 0.00 in0.0 mm 0.00 in0.0 mm
12:40 AM 56.8°F13.8°C 52.4°F11.3°C 85% 3.1 mph S5.0 kmh S 8.3 mph13.4 kmh 30.06 in1017.9 mb 0.00 in0.0 mm 0.00 in0.0 mm 0.00 in0.0 mm
12:35 AM 56.7°F13.7°C 52.2°F11.2°C 85% 2.2 mph S3.5 kmh S 10.7 mph17.2 kmh 30.06 in1017.9 mb 0.00 in0.0 mm 0.00 in0.0 mm 0.00 in0.0 mm
12:30 AM 56.7°F13.7°C 52.2°F11.2°C 85% 3.8 mph S6.1 kmh S 10.7 mph17.2 kmh 30.06 in1017.9 mb 0.00 in0.0 mm 0.00 in0.0 mm 0.00 in0.0 mm
12:25 AM 56.7°F13.7°C 52.5°F11.4°C 86% 3.8 mph S6.1 kmh S 9.2 mph14.8 kmh 30.05 in1017.6 mb 0.00 in0.0 mm 0.00 in0.0 mm 0.00 in0.0 mm
12:20 AM 56.7°F13.7°C 52.5°F11.4°C 86% 3.1 mph SSE5.0 kmh SSE 11.4 mph18.3 kmh 30.05 in1017.6 mb 0.00 in0.0 mm 0.00 in0.0 mm 0.00 in0.0 mm
12:15 AM 56.7°F13.7°C 52.5°F11.4°C 86% 5.4 mph SSE8.7 kmh SSE 11.4 mph18.3 kmh 30.06 in1017.9 mb 0.00 in0.0 mm 0.00 in0.0 mm 0.00 in0.0 mm
12:10 AM 56.8°F13.8°C 52.7°F11.5°C 86% 4.5 mph S7.2 kmh S 9.2 mph14.8 kmh 30.05 in1017.6 mb 0.00 in0.0 mm 0.00 in0.0 mm 0.00 in0.0 mm
12:05 AM 56.8°F13.8°C 52.7°F11.5°C 86% 5.4 mph S8.7 kmh S 9.2 mph14.8 kmh 30.05 in1017.6 mb 0.00 in0.0 mm 0.00 in0.0 mm 0.00 in0.0 mm
12:00 AM 56.8°F13.8°C 53.0°F11.7°C 87% 5.4 mph S8.7 kmh S 8.3 mph13.4 kmh 30.05 in1017.6 mb 0.00 in0.0 mm 0.00 in0.0 mm 0.00 in0.0 mm